Time;durP1;ratioP1;P1;durP2;ratioP2;P2;SDS_P1;SDS_P2;PMS_P1;PMS_P2;Temp;Humidity;BMP_temperature;BMP_pressure;BME280_temperature;BME280_humidity;BME280_pressure;Samples;Min_cycle;Max_cycle;Signal;HPM_P1;HPM_P2
2021/06/01 00:01:44;;;;;;;8.00;4.15;;;9.30;99.90;;;;;;5103538;28;20146;-54
2021/06/01 00:04:11;;;;;;;4.95;3.70;;;9.30;99.90;;;;;;5103855;28;20080;-53
2021/06/01 00:06:38;;;;;;;6.55;3.42;;;9.20;99.90;;;;;;5104349;28;20222;-49
2021/06/01 00:09:09;;;;;;;7.88;3.85;;;9.10;99.90;;;;;;5104969;28;20122;-52
2021/06/01 00:11:35;;;;;;;8.70;3.70;;;9.10;99.90;;;;;;5102887;28;20086;-52
2021/06/01 00:14:01;;;;;;;9.07;4.05;;;9.00;99.90;;;;;;5097295;28;20046;-51
2021/06/01 00:16:27;;;;;;;;;;;9.00;99.90;;;;;;5099428;28;20040;-49
2021/06/01 00:18:52;;;;;;;5.20;3.10;;;9.00;99.90;;;;;;5090894;28;19923;-55
2021/06/01 00:21:18;;;;;;;;;;;9.10;99.90;;;;;;5090286;28;20442;-52
2021/06/01 00:23:44;;;;;;;10.00;3.72;;;9.10;99.90;;;;;;5088668;28;19947;-54
2021/06/01 00:26:11;;;;;;;;;;;8.90;99.90;;;;;;5092239;28;20491;-53
2021/06/01 00:28:38;;;;;;;7.20;3.85;;;8.80;99.90;;;;;;5090839;28;20010;-48
2021/06/01 00:31:04;;;;;;;8.75;3.83;;;8.80;99.90;;;;;;5089738;28;20035;-49
2021/06/01 00:33:30;;;;;;;;;;;8.80;99.90;;;;;;5091954;28;20043;-49
2021/06/01 00:35:55;;;;;;;7.03;3.63;;;8.80;99.90;;;;;;5090941;28;20287;-50
2021/06/01 00:38:21;;;;;;;;;;;8.70;99.90;;;;;;5091524;28;20111;-54
2021/06/01 00:40:47;;;;;;;7.03;4.15;;;8.70;99.90;;;;;;5089567;28;19976;-54
2021/06/01 00:43:12;;;;;;;;;;;8.70;99.90;;;;;;5088748;28;20042;-49
2021/06/01 00:45:38;;;;;;;11.65;4.20;;;8.70;99.90;;;;;;5090199;28;19920;-53
2021/06/01 00:48:03;;;;;;;;;;;8.70;99.90;;;;;;5091770;28;20056;-54
2021/06/01 00:50:29;;;;;;;6.55;4.03;;;8.80;99.90;;;;;;5087768;28;19990;-54
2021/06/01 00:52:55;;;;;;;;;;;8.80;99.90;;;;;;5091195;28;20036;-55
2021/06/01 00:55:24;;;;;;;9.32;3.40;;;8.70;99.90;;;;;;5090740;28;19920;-54
2021/06/01 00:57:51;;;;;;;12.40;4.13;;;8.60;99.90;;;;;;5078310;28;20053;-49
2021/06/01 01:03:04;;;;;;;6.25;3.33;;;8.60;99.90;;;;;;5070520;28;20040;-51
2021/06/01 01:05:36;;;;;;;11.45;3.80;;;8.60;99.90;;;;;;5069709;28;20109;-50
2021/06/01 01:08:33;;;;;;;6.00;3.50;;;8.50;99.90;;;;;;5070679;28;20068;-54
2021/06/01 01:11:01;;;;;;;5.95;3.65;;;8.60;99.90;;;;;;5068102;28;20049;-50
2021/06/01 01:13:36;;;;;;;5.70;3.72;;;8.60;99.90;;;;;;5075698;28;20596;-55
2021/06/01 01:16:04;;;;;;;4.93;3.70;;;8.50;99.90;;;;;;5084866;28;20027;-54
2021/06/01 01:18:31;;;;;;;12.27;4.50;;;8.50;99.90;;;;;;5089950;28;20048;-55
2021/06/01 01:21:11;;;;;;;9.23;4.13;;;8.50;99.90;;;;;;5088233;28;20067;-59
2021/06/01 01:23:43;;;;;;;6.35;4.15;;;8.60;99.90;;;;;;5090575;28;20463;-63
2021/06/01 01:26:53;;;;;;;11.10;4.00;;;8.50;99.90;;;;;;5089759;28;20047;-60
2021/06/01 01:29:37;;;;;;;8.35;3.80;;;8.40;99.90;;;;;;5080190;28;20044;-52
2021/06/01 01:32:05;;;;;;;8.25;3.38;;;8.60;99.90;;;;;;5087810;28;20036;-56
2021/06/01 01:34:32;;;;;;;9.68;3.95;;;8.60;99.90;;;;;;5089699;28;20101;-57
2021/06/01 01:36:59;;;;;;;11.00;3.78;;;8.50;99.90;;;;;;5090060;28;20043;-55
2021/06/01 01:39:25;;;;;;;8.43;3.33;;;8.60;99.90;;;;;;5089307;28;20044;-57
2021/06/01 01:41:52;;;;;;;10.00;3.53;;;8.60;99.90;;;;;;5086179;28;20048;-54
2021/06/01 01:44:19;;;;;;;9.95;4.13;;;8.60;99.90;;;;;;5086760;28;20043;-55
2021/06/01 01:49:15;;;;;;;6.35;4.05;;;8.60;99.90;;;;;;5089576;28;20089;-54
2021/06/01 01:51:44;;;;;;;9.90;4.32;;;8.60;99.90;;;;;;5087681;28;20046;-49
2021/06/01 01:54:16;;;;;;;7.80;4.05;;;8.50;99.90;;;;;;5089354;28;20050;-54
2021/06/01 01:56:48;;;;;;;9.82;5.00;;;8.50;99.90;;;;;;5087106;28;20044;-56
2021/06/01 01:59:16;;;;;;;6.78;3.80;;;8.40;99.90;;;;;;5068715;28;20392;-54
2021/06/01 02:01:43;;;;;;;5.95;4.07;;;8.50;99.90;;;;;;5085352;28;20048;-57
2021/06/01 02:04:10;;;;;;;11.68;3.88;;;8.40;99.90;;;;;;5088359;28;20488;-53
2021/06/01 02:06:36;;;;;;;8.77;4.43;;;8.40;99.90;;;;;;5070926;28;20115;-52
2021/06/01 02:09:03;;;;;;;;;;;8.40;99.90;;;;;;5080833;28;20036;-56
2021/06/01 02:11:29;;;;;;;14.82;4.88;;;8.30;99.90;;;;;;5087401;28;20343;-56
2021/06/01 02:14:01;;;;;;;;;;;8.30;99.90;;;;;;5085974;28;20213;-56
2021/06/01 02:16:27;;;;;;;9.27;4.38;;;8.30;99.90;;;;;;5088610;28;19985;-56
2021/06/01 02:18:53;;;;;;;5.43;3.65;;;8.30;99.90;;;;;;5088892;28;20089;-53
2021/06/01 02:21:34;;;;;;;;;;;8.40;99.90;;;;;;5083585;28;20037;-55
2021/06/01 02:24:06;;;;;;;10.00;4.68;;;8.30;99.90;;;;;;5082155;28;19927;-52
2021/06/01 02:26:46;;;;;;;6.63;3.90;;;8.30;99.90;;;;;;5069292;28;20040;-55
2021/06/01 02:29:35;;;;;;;7.72;3.85;;;8.20;99.90;;;;;;5067896;28;20502;-54
2021/06/01 02:32:02;;;;;;;12.00;4.32;;;8.20;99.90;;;;;;5067938;28;20041;-57
2021/06/01 02:34:30;;;;;;;5.82;4.03;;;8.20;99.90;;;;;;5088812;28;20112;-51
2021/06/01 02:36:56;;;;;;;5.93;4.00;;;8.10;99.90;;;;;;5088363;28;20344;-56
2021/06/01 02:39:24;;;;;;;8.95;3.85;;;8.10;99.90;;;;;;5088291;28;20039;-58
2021/06/01 02:41:50;;;;;;;6.40;4.18;;;8.10;99.90;;;;;;5086862;28;20058;-54
2021/06/01 02:44:16;;;;;;;5.95;4.20;;;8.10;99.90;;;;;;5083580;28;20119;-51
2021/06/01 02:46:42;;;;;;;;;;;8.10;99.90;;;;;;5088735;28;20127;-53
2021/06/01 02:49:09;;;;;;;8.73;4.30;;;8.20;99.90;;;;;;5088837;28;19923;-53
2021/06/01 02:51:37;;;;;;;7.13;4.30;;;8.10;99.90;;;;;;5087513;28;20047;-54
2021/06/01 02:54:05;;;;;;;6.53;3.95;;;8.10;99.90;;;;;;5087725;28;20047;-56
2021/06/01 02:56:31;;;;;;;7.78;4.40;;;8.00;99.90;;;;;;5087788;28;20097;-54
2021/06/01 02:58:58;;;;;;;11.38;4.05;;;7.90;99.90;;;;;;5068914;28;20048;-56
2021/06/01 03:01:25;;;;;;;6.88;4.10;;;8.00;99.90;;;;;;5066241;28;20047;-57
2021/06/01 03:03:53;;;;;;;5.95;4.15;;;8.00;99.90;;;;;;5067804;28;20117;-54
2021/06/01 03:06:20;;;;;;;21.38;5.15;;;8.00;99.90;;;;;;5068163;28;20340;-53
2021/06/01 03:08:46;;;;;;;7.90;4.78;;;7.90;99.90;;;;;;5068097;28;20044;-55
2021/06/01 03:11:15;;;;;;;;;;;7.90;99.90;;;;;;5067581;28;20460;-56
2021/06/01 03:13:40;;;;;;;7.32;3.80;;;7.90;99.90;;;;;;5076389;28;20015;-52
2021/06/01 03:16:06;;;;;;;;;;;8.00;99.90;;;;;;5088553;28;20115;-54
2021/06/01 03:18:32;;;;;;;9.63;3.85;;;7.90;99.90;;;;;;5087719;28;19916;-55
2021/06/01 03:20:58;;;;;;;;;;;7.90;99.90;;;;;;5086902;28;20083;-54
2021/06/01 03:23:24;;;;;;;5.40;4.00;;;7.90;99.90;;;;;;5088189;28;19965;-54
2021/06/01 03:25:51;;;;;;;6.68;4.20;;;8.00;99.90;;;;;;5088423;28;20074;-51
2021/06/01 03:28:17;;;;;;;10.38;4.00;;;8.00;99.90;;;;;;5086103;28;20036;-57
2021/06/01 03:30:43;;;;;;;;;;;8.00;99.90;;;;;;5086203;28;20032;-51
2021/06/01 03:33:09;;;;;;;7.38;3.97;;;8.00;99.90;;;;;;5088642;28;19964;-57
2021/06/01 03:35:34;;;;;;;7.40;4.38;;;7.90;99.90;;;;;;5088174;28;20092;-52
2021/06/01 03:38:00;;;;;;;;;;;7.90;99.90;;;;;;5088523;28;20028;-56
2021/06/01 03:40:26;;;;;;;7.32;4.25;;;8.00;99.90;;;;;;5086958;28;19928;-56
2021/06/01 03:42:51;;;;;;;;;;;8.10;99.90;;;;;;5085298;28;20040;-56
2021/06/01 03:45:19;;;;;;;4.97;3.58;;;8.20;99.90;;;;;;5087179;28;19916;-53
2021/06/01 03:47:45;;;;;;;7.18;4.45;;;8.60;99.90;;;;;;5087990;28;20419;-54
2021/06/01 03:50:11;;;;;;;8.85;4.50;;;8.70;99.90;;;;;;5086802;28;20039;-56
2021/06/01 03:52:37;;;;;;;;;;;8.70;99.90;;;;;;5089526;28;20032;-55
2021/06/01 03:55:03;;;;;;;6.07;3.72;;;8.70;99.90;;;;;;5091700;28;20065;-53
2021/06/01 03:57:29;;;;;;;6.20;4.22;;;8.90;99.90;;;;;;5091717;28;20044;-54
2021/06/01 03:59:55;;;;;;;;;;;9.30;99.90;;;;;;5089148;28;20051;-59
2021/06/01 04:02:21;;;;;;;7.07;4.03;;;9.60;99.90;;;;;;5070110;28;19927;-51
2021/06/01 04:04:46;;;;;;;;;;;9.70;99.90;;;;;;5071659;28;20044;-51
2021/06/01 04:07:12;;;;;;;6.93;4.18;;;9.70;99.90;;;;;;5069424;28;19959;-53
2021/06/01 04:09:38;;;;;;;;;;;9.70;99.90;;;;;;5071286;28;20416;-51
2021/06/01 04:12:04;;;;;;;11.30;3.42;;;10.10;99.90;;;;;;5070128;28;19970;-51
2021/06/01 04:14:30;;;;;;;6.03;3.92;;;10.30;99.90;;;;;;5085797;28;20036;-51
2021/06/01 04:16:55;;;;;;;;;;;10.20;99.90;;;;;;5090559;28;20050;-53
2021/06/01 04:19:21;;;;;;;9.90;3.92;;;10.20;99.90;;;;;;5091075;28;19987;-50
2021/06/01 04:21:47;;;;;;;;;;;10.10;99.90;;;;;;5090923;28;20071;-55
2021/06/01 04:24:12;;;;;;;11.60;4.03;;;10.10;99.90;;;;;;5083066;28;19923;-51
2021/06/01 04:26:38;;;;;;;;;;;10.30;99.90;;;;;;5071033;28;20067;-54
2021/06/01 04:29:04;;;;;;;14.68;6.20;;;11.20;99.90;;;;;;5071153;28;19916;-53
2021/06/01 04:31:31;;;;;;;5.70;3.78;;;12.10;97.50;;;;;;5076984;28;20127;-53
2021/06/01 04:33:56;;;;;;;8.38;3.40;;;12.90;96.80;;;;;;5090675;28;20044;-57
2021/06/01 04:36:24;;;;;;;;;;;14.10;93.90;;;;;;5090941;28;20100;-51
2021/06/01 04:38:50;;;;;;;8.55;3.20;;;15.00;90.60;;;;;;5091717;28;20003;-52
2021/06/01 04:41:16;;;;;;;;;;;14.50;92.00;;;;;;5089919;28;20499;-51
2021/06/01 04:43:41;;;;;;;8.57;3.85;;;13.80;92.90;;;;;;5087214;28;19920;-58
2021/06/01 04:46:07;;;;;;;;;;;13.30;94.70;;;;;;5089082;28;20092;-55
2021/06/01 04:48:32;;;;;;;6.95;3.72;;;13.00;94.30;;;;;;5090859;28;19967;-56
2021/06/01 04:50:58;;;;;;;;;;;12.80;95.70;;;;;;5089552;28;20084;-55
2021/06/01 04:53:23;;;;;;;6.70;3.75;;;12.70;96.00;;;;;;5090421;28;19959;-56
2021/06/01 04:55:49;;;;;;;;;;;12.60;97.10;;;;;;5090793;28;20518;-55
2021/06/01 04:58:14;;;;;;;7.28;3.97;;;12.40;96.90;;;;;;5090312;28;19931;-55
2021/06/01 05:00:40;;;;;;;;;;;12.40;98.30;;;;;;5079785;28;20840;-58
2021/06/01 05:03:06;;;;;;;7.80;3.75;;;12.50;98.30;;;;;;5070487;28;19920;-58
2021/06/01 05:05:32;;;;;;;5.65;3.35;;;13.20;97.20;;;;;;5069680;28;20471;-57
2021/06/01 05:07:58;;;;;;;;;;;14.00;94.20;;;;;;5070651;28;20048;-54
2021/06/01 05:10:23;;;;;;;6.95;3.47;;;14.00;94.40;;;;;;5069052;28;19923;-52
2021/06/01 05:12:49;;;;;;;;;;;13.90;94.30;;;;;;5071859;28;20088;-53
2021/06/01 05:15:14;;;;;;;10.10;3.58;;;13.60;95.00;;;;;;5089955;28;19963;-51
2021/06/01 05:17:41;;;;;;;;;;;13.70;94.70;;;;;;5090142;28;20570;-57
2021/06/01 05:20:08;;;;;;;4.10;2.95;;;14.80;95.20;;;;;;5088535;28;19922;-55
2021/06/01 05:22:34;;;;;;;4.78;2.88;;;16.30;92.60;;;;;;5079149;28;20044;-57
2021/06/01 05:25:00;;;;;;;5.25;2.83;;;17.70;86.90;;;;;;5083547;28;20047;-55
2021/06/01 05:27:26;;;;;;;4.35;2.95;;;18.40;83.90;;;;;;5086228;28;20041;-55
2021/06/01 05:29:55;;;;;;;;;;;19.50;82.10;;;;;;5069627;28;20082;-55
2021/06/01 05:35:16;;;;;;;6.38;2.75;;;20.10;75.60;;;;;;5088452;28;20051;-58
2021/06/01 05:37:41;;;;;;;7.88;2.60;;;19.50;73.50;;;;;;5086155;28;20500;-52
2021/06/01 05:40:08;;;;;;;7.60;2.70;;;19.30;76.70;;;;;;5073277;28;20041;-58
2021/06/01 05:42:33;;;;;;;4.47;2.00;;;19.30;74.70;;;;;;5068830;28;20091;-58
2021/06/01 05:44:59;;;;;;;4.72;2.60;;;19.80;66.00;;;;;;5088278;28;20068;-55
2021/06/01 05:47:25;;;;;;;3.22;2.45;;;19.70;66.60;;;;;;5085501;28;20048;-55
2021/06/01 05:49:50;;;;;;;3.33;2.17;;;20.30;67.40;;;;;;5078854;28;20406;-55
2021/06/01 05:52:16;;;;;;;4.47;2.22;;;20.60;60.40;;;;;;5081999;28;20028;-55
2021/06/01 05:54:41;;;;;;;3.67;2.53;;;20.00;59.90;;;;;;5089126;28;20066;-58
2021/06/01 05:57:07;;;;;;;7.28;2.13;;;20.10;62.70;;;;;;5083488;28;20128;-58
2021/06/01 05:59:33;;;;;;;4.07;1.88;;;20.50;59.30;;;;;;5067221;28;20083;-58
2021/06/01 06:01:59;;;;;;;3.58;2.28;;;20.00;59.80;;;;;;5083954;28;20063;-58
2021/06/01 06:04:24;;;;;;;4.05;2.17;;;19.80;57.40;;;;;;5077831;28;20048;-58
2021/06/01 06:06:50;;;;;;;2.72;2.20;;;19.90;61.10;;;;;;5079246;28;20403;-52
2021/06/01 06:09:16;;;;;;;4.15;2.78;;;21.30;55.70;;;;;;5076504;28;20817;-57
2021/06/01 06:11:41;;;;;;;4.13;1.92;;;22.80;52.60;;;;;;5077527;28;20467;-56
2021/06/01 06:14:07;;;;;;;3.15;2.10;;;23.70;47.80;;;;;;5081401;28;20046;-58
2021/06/01 06:16:44;;;;;;;4.95;2.30;;;24.50;49.00;;;;;;5075084;28;20511;-57
2021/06/01 06:19:10;;;;;;;2.95;1.85;;;24.70;42.60;;;;;;5068621;28;20044;-55
2021/06/01 06:21:35;;;;;;;3.67;2.33;;;24.50;43.60;;;;;;5068293;28;20150;-58
2021/06/01 06:24:01;;;;;;;6.82;2.42;;;24.50;43.10;;;;;;5074301;28;20032;-57
2021/06/01 06:26:26;;;;;;;3.63;2.20;;;24.30;42.70;;;;;;5089019;28;20076;-56
2021/06/01 06:28:52;;;;;;;3.42;2.03;;;23.80;43.00;;;;;;5088493;28;20138;-54
2021/06/01 06:31:18;;;;;;;3.67;2.03;;;23.30;45.50;;;;;;5086945;28;20036;-57
2021/06/01 06:33:44;;;;;;;3.70;2.10;;;22.60;47.10;;;;;;5085118;28;20463;-55
2021/06/01 06:36:10;;;;;;;3.15;2.17;;;22.20;47.30;;;;;;5088869;28;20071;-54
2021/06/01 06:38:35;;;;;;;5.57;2.60;;;23.00;45.10;;;;;;5087842;28;20044;-54
2021/06/01 06:43:38;;;;;;;6.70;1.95;;;23.40;44.00;;;;;;5085325;28;20050;-53
2021/06/01 06:46:08;;;;;;;3.25;1.92;;;23.30;45.40;;;;;;5080257;28;20411;-54
2021/06/01 06:48:34;;;;;;;5.60;1.85;;;23.20;45.00;;;;;;5088001;28;20675;-57
2021/06/01 06:51:12;;;;;;;2.20;1.80;;;23.90;45.10;;;;;;5086836;28;20134;-57
2021/06/01 06:53:51;;;;;;;3.42;1.85;;;24.20;40.40;;;;;;5072524;28;20097;-57
2021/06/01 06:56:17;;;;;;;3.78;1.95;;;23.90;41.80;;;;;;5079535;28;20043;-56
2021/06/01 06:58:43;;;;;;;3.25;2.20;;;23.50;43.70;;;;;;5086961;28;20044;-57
2021/06/01 07:01:12;;;;;;;4.50;1.98;;;22.70;43.10;;;;;;5065994;28;20534;-56
2021/06/01 07:03:38;;;;;;;3.70;2.05;;;22.90;45.90;;;;;;5073607;28;20093;-58
2021/06/01 07:06:05;;;;;;;3.08;1.73;;;23.20;42.70;;;;;;5087885;28;20044;-58
2021/06/01 07:08:31;;;;;;;3.85;1.77;;;23.20;42.80;;;;;;5084040;28;20408;-59
2021/06/01 07:10:57;;;;;;;5.80;2.13;;;23.60;44.70;;;;;;5084027;28;20043;-54
2021/06/01 07:13:35;;;;;;;4.43;2.10;;;24.20;42.70;;;;;;5088747;28;20036;-58
2021/06/01 07:16:01;;;;;;;5.38;2.17;;;24.20;40.70;;;;;;5087045;28;20047;-54
2021/06/01 07:18:27;;;;;;;2.25;1.92;;;23.80;41.60;;;;;;5088081;28;20032;-55
2021/06/01 07:20:53;;;;;;;5.43;1.90;;;24.30;42.40;;;;;;5104870;28;20081;-59
2021/06/01 07:23:19;;;;;;;4.65;1.95;;;24.70;40.20;;;;;;5101186;28;20111;-57
2021/06/01 07:25:45;;;;;;;3.58;2.05;;;25.60;40.30;;;;;;5077671;28;20144;-50
2021/06/01 07:28:12;;;;;;;6.43;1.90;;;25.50;38.90;;;;;;5089630;28;20047;-58
2021/06/01 07:30:37;;;;;;;7.68;2.10;;;25.70;39.90;;;;;;5073486;28;20071;-54
2021/06/01 07:33:03;;;;;;;2.30;1.70;;;26.60;39.00;;;;;;5080522;28;20044;-59
2021/06/01 07:35:29;;;;;;;1.85;1.70;;;26.90;36.00;;;;;;5091589;28;20063;-59
2021/06/01 07:37:54;;;;;;;2.85;1.73;;;27.10;38.00;;;;;;5091042;28;20047;-58
2021/06/01 07:40:21;;;;;;;3.85;1.80;;;27.40;34.60;;;;;;5091164;28;20047;-57
2021/06/01 07:42:47;;;;;;;3.15;1.95;;;28.00;36.00;;;;;;5089025;28;20043;-57
2021/06/01 07:45:13;;;;;;;3.47;1.83;;;29.00;33.90;;;;;;5090995;28;20039;-58
2021/06/01 07:47:38;;;;;;;2.55;1.63;;;29.90;33.20;;;;;;5091769;28;20177;-56
2021/06/01 07:50:05;;;;;;;3.08;1.52;;;30.30;31.40;;;;;;5091233;28;20036;-57
2021/06/01 07:52:31;;;;;;;3.55;1.70;;;30.50;31.70;;;;;;5091760;28;20040;-58
2021/06/01 07:54:56;;;;;;;4.55;2.95;;;30.90;30.00;;;;;;5091439;28;20044;-57
2021/06/01 07:57:22;;;;;;;2.35;1.85;;;29.70;29.70;;;;;;5084445;28;20096;-56
2021/06/01 07:59:48;;;;;;;1.77;1.55;;;29.40;32.00;;;;;;5074995;28;20036;-59
2021/06/01 08:02:14;;;;;;;4.72;1.85;;;30.40;32.90;;;;;;5090352;28;20117;-59
2021/06/01 08:04:39;;;;;;;2.53;1.80;;;30.90;30.50;;;;;;5091228;28;20395;-59
2021/06/01 08:07:08;;;;;;;3.05;2.00;;;31.70;29.80;;;;;;5091798;28;20694;-58
2021/06/01 08:09:35;;;;;;;2.65;2.00;;;31.20;29.20;;;;;;5090919;28;20044;-56
2021/06/01 08:12:02;;;;;;;1.70;1.60;;;30.80;27.80;;;;;;5091181;28;20048;-57
2021/06/01 08:14:28;;;;;;;2.67;1.80;;;32.30;29.80;;;;;;5088702;28;20522;-58
2021/06/01 08:16:53;;;;;;;3.88;1.70;;;32.30;26.90;;;;;;5090914;28;20040;-59
2021/06/01 08:19:23;;;;;;;2.22;1.77;;;32.60;26.50;;;;;;5090485;28;20127;-55
2021/06/01 08:21:55;;;;;;;2.92;1.58;;;32.70;26.70;;;;;;5089561;28;20040;-57
2021/06/01 08:24:21;;;;;;;3.08;1.98;;;32.30;28.30;;;;;;5090204;28;20596;-56
2021/06/01 08:26:47;;;;;;;5.35;1.88;;;33.00;29.40;;;;;;5091673;28;20127;-57
2021/06/01 08:29:13;;;;;;;3.03;2.13;;;33.30;26.60;;;;;;5090352;28;20381;-58
2021/06/01 08:31:40;;;;;;;5.32;2.08;;;33.00;27.70;;;;;;5089852;28;20090;-59
2021/06/01 08:34:06;;;;;;;2.40;1.80;;;32.10;27.10;;;;;;5085920;28;20077;-60
2021/06/01 08:36:32;;;;;;;3.35;1.70;;;32.10;28.20;;;;;;5090596;28;20044;-59
2021/06/01 08:38:58;;;;;;;3.45;2.10;;;31.80;29.20;;;;;;5090363;28;20553;-59
2021/06/01 08:41:24;;;;;;;4.15;2.03;;;32.10;27.50;;;;;;5090768;28;20131;-59
2021/06/01 08:43:52;;;;;;;2.40;1.77;;;32.20;26.80;;;;;;5087084;28;20040;-59
2021/06/01 08:46:23;;;;;;;6.78;2.50;;;31.90;26.80;;;;;;5088767;28;20043;-59
2021/06/01 08:48:50;;;;;;;3.97;2.13;;;31.60;27.60;;;;;;5080835;28;20144;-59
2021/06/01 08:51:20;;;;;;;3.83;1.90;;;31.30;29.80;;;;;;5089652;28;20048;-56
2021/06/01 08:53:47;;;;;;;4.20;2.03;;;31.10;26.50;;;;;;5090517;28;20149;-58
2021/06/01 08:56:12;;;;;;;2.22;1.55;;;30.00;28.10;;;;;;5091119;28;20044;-58
2021/06/01 08:58:38;;;;;;;3.35;2.00;;;29.70;29.80;;;;;;5091077;28;20059;-56
2021/06/01 09:01:03;;;;;;;3.28;2.00;;;28.60;30.40;;;;;;5073555;28;20079;-56
2021/06/01 09:03:29;;;;;;;2.65;2.00;;;27.70;33.60;;;;;;5076044;28;20032;-57
2021/06/01 09:06:02;;;;;;;3.60;2.13;;;26.60;32.70;;;;;;5090499;28;20072;-57
2021/06/01 09:08:41;;;;;;;5.60;2.03;;;25.80;35.40;;;;;;5090075;28;20040;-57
2021/06/01 09:22:33;;;;;;;3.40;1.95;;;23.40;41.10;;;;;;5088802;28;20040;-55
2021/06/01 09:25:08;;;;;;;2.80;2.10;;;23.30;37.70;;;;;;5090426;28;20047;-55
2021/06/01 09:27:51;;;;;;;3.15;2.30;;;23.40;41.40;;;;;;5083618;28;20389;-49
2021/06/01 09:30:38;;;;;;;6.05;1.95;;;23.20;41.90;;;;;;5077922;28;20656;-53
2021/06/01 09:33:07;;;;;;;6.50;2.22;;;23.10;43.10;;;;;;5079301;28;20130;-57
2021/06/01 09:36:01;;;;;;;7.10;2.47;;;23.00;42.60;;;;;;5086293;28;20048;-57
2021/06/01 09:38:28;;;;;;;3.35;2.00;;;23.10;45.40;;;;;;5080392;28;20047;-55
2021/06/01 09:41:07;;;;;;;4.50;2.75;;;23.10;42.90;;;;;;5078400;28;20043;-57
2021/06/01 09:43:35;;;;;;;9.57;2.10;;;23.00;42.00;;;;;;5080518;28;20032;-52
2021/06/01 09:46:32;;;;;;;5.10;3.20;;;23.00;43.50;;;;;;5077177;28;20093;-57
2021/06/01 09:49:12;;;;;;;2.90;2.30;;;22.80;43.50;;;;;;5079312;28;20065;-55
2021/06/01 09:51:39;;;;;;;3.75;2.10;;;22.70;41.90;;;;;;5077213;28;20047;-59
2021/06/01 09:54:47;;;;;;;3.65;2.10;;;22.20;43.70;;;;;;5080946;28;20036;-58
2021/06/01 09:57:27;;;;;;;4.85;2.20;;;22.20;45.50;;;;;;5080244;28;20066;-55
2021/06/01 10:00:16;;;;;;;2.90;1.77;;;22.10;43.00;;;;;;5078404;28;20044;-59
2021/06/01 10:02:44;;;;;;;4.43;2.35;;;22.10;46.10;;;;;;5077708;28;20040;-57
2021/06/01 10:05:18;;;;;;;4.22;2.15;;;22.40;43.80;;;;;;5077541;28;20036;-57
2021/06/01 10:07:44;;;;;;;5.05;2.00;;;22.40;40.70;;;;;;5069060;28;20500;-57
2021/06/01 10:10:19;;;;;;;2.80;1.60;;;21.80;41.20;;;;;;5068160;28;20040;-59
2021/06/01 10:12:48;;;;;;;2.08;1.63;;;21.50;42.00;;;;;;5068941;28;20040;-56
2021/06/01 10:15:16;;;;;;;2.20;1.70;;;21.60;42.50;;;;;;5087916;28;20032;-56
2021/06/01 10:17:42;;;;;;;4.65;1.75;;;21.10;41.20;;;;;;5089520;28;20135;-57
2021/06/01 10:20:07;;;;;;;;;;;21.10;41.90;;;;;;5087758;28;20521;-56
2021/06/01 10:22:33;;;;;;;3.47;2.10;;;21.40;44.20;;;;;;5088736;28;19924;-54
2021/06/01 10:24:59;;;;;;;2.95;2.20;;;21.40;42.00;;;;;;5088797;28;20044;-53
2021/06/01 10:27:26;;;;;;;4.32;1.95;;;21.60;42.30;;;;;;5088580;28;20090;-57
2021/06/01 10:29:51;;;;;;;4.03;2.78;;;21.80;42.60;;;;;;5088435;28;20044;-57
2021/06/01 10:32:18;;;;;;;2.08;1.42;;;22.10;40.10;;;;;;5087058;28;20040;-57
2021/06/01 10:34:44;;;;;;;4.05;1.73;;;22.10;39.40;;;;;;5088314;28;20672;-56
2021/06/01 10:43:17;;;;;;;4.15;1.50;;;22.20;40.10;;;;;;5077249;28;20052;-59
2021/06/01 10:49:10;;;;;;;1.45;1.00;;;21.90;38.70;;;;;;5089881;28;20119;-57
2021/06/01 10:51:55;;;;;;;4.25;1.42;;;21.70;36.90;;;;;;5087201;28;20793;-49
2021/06/01 10:54:38;;;;;;;2.90;1.50;;;21.70;38.80;;;;;;5083365;28;20048;-52
2021/06/01 10:57:05;;;;;;;2.95;1.90;;;21.50;37.60;;;;;;5078349;28;20040;-55
2021/06/01 11:01:49;;;;;;;1.60;1.40;;;21.60;39.40;;;;;;5087507;28;20387;-54
2021/06/01 11:03:05;;;;;;;4.35;1.38;;;21.50;37.60;;;;;;5086596;28;20148;-48
2021/06/01 11:05:39;;;;;;;1.98;1.40;;;21.20;38.60;;;;;;5087789;28;20082;-54
2021/06/01 11:08:12;;;;;;;1.85;1.40;;;21.20;40.20;;;;;;5086337;28;20051;-56
2021/06/01 11:10:40;;;;;;;2.63;1.73;;;21.40;41.60;;;;;;5087213;28;20066;-56
2021/06/01 11:13:30;;;;;;;1.75;1.20;;;21.80;45.70;;;;;;5084839;28;20043;-51
2021/06/01 11:16:00;;;;;;;4.18;2.30;;;21.90;39.30;;;;;;5070645;28;20048;-56
2021/06/01 11:18:42;;;;;;;6.45;1.50;;;22.10;38.50;;;;;;5082919;28;20048;-52
2021/06/01 11:21:26;;;;;;;5.05;2.20;;;22.30;43.00;;;;;;5078908;28;20032;-51
2021/06/01 11:24:18;;;;;;;4.57;3.85;;;22.40;37.80;;;;;;5088035;28;20047;-48
2021/06/01 11:35:29;;;;;;;1.30;1.00;;;22.20;36.40;;;;;;5080659;28;20040;-57
2021/06/01 11:40:29;;;;;;;3.72;1.58;;;22.50;41.00;;;;;;5087347;28;20044;-59
2021/06/01 11:43:21;;;;;;;2.47;2.08;;;22.40;37.30;;;;;;5083848;28;20072;-57
2021/06/01 11:51:29;;;;;;;2.97;1.77;;;21.60;39.00;;;;;;5042139;28;20044;-77
2021/06/01 11:53:58;;;;;;;1.83;1.25;;;21.80;39.40;;;;;;5052979;28;20034;-74
2021/06/01 11:56:40;;;;;;;1.55;1.30;;;21.80;40.40;;;;;;5031784;28;20489;-75
2021/06/01 12:02:16;;;;;;;4.00;1.80;;;22.00;38.70;;;;;;5039553;28;20065;-73
2021/06/01 12:05:03;;;;;;;2.63;2.13;;;22.10;43.00;;;;;;5032398;28;20045;-75
2021/06/01 12:18:42;;;;;;;5.68;1.33;;;22.50;35.00;;;;;;5054012;28;20044;-74
2021/06/01 12:21:18;;;;;;;1.73;0.98;;;22.20;34.80;;;;;;5035568;28;20785;-75
2021/06/01 12:23:54;;;;;;;2.22;1.70;;;22.00;36.50;;;;;;5035154;28;20033;-72
2021/06/01 12:26:41;;;;;;;1.98;1.05;;;22.10;37.60;;;;;;5032445;28;20085;-70
2021/06/01 12:32:14;;;;;;;4.68;1.10;;;22.10;35.30;;;;;;5033465;28;20047;-76
2021/06/01 12:43:49;;;;;;;2.38;1.27;;;22.40;39.20;;;;;;5053034;28;20047;-75
2021/06/01 13:08:53;;;;;;;1.85;1.40;;;22.00;38.00;;;;;;5052884;28;20045;-75
2021/06/01 13:22:51;;;;;;;4.15;2.03;;;22.10;38.80;;;;;;5052480;28;20120;-73
2021/06/01 13:36:38;;;;;;;2.43;1.57;;;21.90;40.40;;;;;;5031884;28;20698;-73
2021/06/01 13:39:48;;;;;;;1.70;1.35;;;21.90;41.10;;;;;;5014399;28;20272;-72
2021/06/01 13:48:07;;;;;;;2.20;1.48;;;21.60;38.70;;;;;;5051833;28;20049;-75
2021/06/01 13:55:07;;;;;;;3.80;1.88;;;21.50;41.00;;;;;;5051151;28;20037;-73
2021/06/01 14:30:27;;;;;;;3.83;2.13;;;21.30;44.70;;;;;;5045758;28;20025;-75
2021/06/01 14:55:29;;;;;;;2.90;1.80;;;21.00;45.10;;;;;;5041382;28;20044;-74
2021/06/01 15:11:28;;;;;;;2.97;1.80;;;20.90;45.50;;;;;;5051384;28;20052;-73
2021/06/01 16:13:56;;;;;;;4.70;1.70;;;20.30;46.20;;;;;;5050747;28;20067;-71
2021/06/01 16:30:59;;;;;;;8.05;1.95;;;20.00;48.00;;;;;;5045328;28;20075;-76
2021/06/01 17:03:35;;;;;;;6.93;1.98;;;19.80;49.10;;;;;;5053801;28;20033;-73
2021/06/01 17:06:14;;;;;;;2.55;1.50;;;19.70;48.60;;;;;;5054071;28;20048;-76
2021/06/01 17:11:19;;;;;;;2.83;2.08;;;19.60;47.10;;;;;;5053423;28;20490;-75
2021/06/01 17:13:57;;;;;;;3.25;1.58;;;19.70;48.20;;;;;;5027572;28;20041;-76
2021/06/01 17:30:24;;;;;;;4.32;1.30;;;19.60;44.10;;;;;;5052911;28;20413;-75
2021/06/01 17:35:21;;;;;;;2.97;1.65;;;19.50;44.00;;;;;;5041240;28;19920;-73
2021/06/01 17:37:48;;;;;;;1.90;1.38;;;19.50;43.40;;;;;;5033733;28;20037;-75
2021/06/01 17:40:17;;;;;;;6.05;1.55;;;19.40;44.50;;;;;;5026197;28;20095;-73
2021/06/01 17:42:53;;;;;;;4.43;1.58;;;19.40;42.70;;;;;;5046344;28;20037;-75
2021/06/01 17:45:24;;;;;;;2.67;1.60;;;19.40;44.30;;;;;;5026981;28;20064;-73
2021/06/01 17:48:09;;;;;;;6.70;1.50;;;19.30;43.40;;;;;;5034147;28;20053;-75
2021/06/01 17:50:37;;;;;;;2.33;1.45;;;19.30;42.50;;;;;;5034566;28;20494;-73
2021/06/01 17:53:03;;;;;;;3.10;1.80;;;19.30;42.70;;;;;;5034375;28;20033;-74
2021/06/01 17:55:32;;;;;;;5.28;1.23;;;19.30;43.80;;;;;;5025318;28;20071;-74
2021/06/01 17:58:00;;;;;;;9.05;1.40;;;19.20;44.40;;;;;;5034448;28;20044;-74
2021/06/01 18:00:29;;;;;;;3.00;1.40;;;19.10;47.80;;;;;;5033427;28;20063;-73
2021/06/01 18:02:55;;;;;;;3.42;1.20;;;19.10;45.30;;;;;;5067408;28;20052;-74
2021/06/01 18:05:23;;;;;;;;;;;19.10;46.00;;;;;;5067524;28;20394;-76
2021/06/01 18:08:03;;;;;;;4.65;1.45;;;19.00;48.80;;;;;;5034696;28;19999;-74
2021/06/01 19:25:05;;;;;;;2.97;1.67;;;16.40;64.90;;;;;;5014503;28;20056;-75
2021/06/01 19:51:58;;;;;;;6.43;2.30;;;15.60;68.60;;;;;;5046414;28;20424;-75
2021/06/01 19:54:27;;;;;;;2.25;1.98;;;15.60;70.30;;;;;;5035934;28;20151;-74
2021/06/01 19:56:52;;;;;;;2.70;1.63;;;15.50;69.30;;;;;;5033593;28;20043;-74
2021/06/01 19:59:19;;;;;;;;;;;15.40;70.80;;;;;;5054395;28;20036;-73
2021/06/01 20:01:46;;;;;;;9.25;2.20;;;15.30;70.50;;;;;;5033852;28;19971;-73
2021/06/01 20:04:12;;;;;;;12.10;2.10;;;15.20;71.40;;;;;;5035051;28;20037;-74
2021/06/01 20:06:39;;;;;;;5.70;1.60;;;15.10;73.10;;;;;;5036204;28;20077;-74
2021/06/01 20:09:06;;;;;;;2.22;1.60;;;14.90;71.30;;;;;;5028977;28;20029;-73
2021/06/01 20:11:36;;;;;;;7.03;2.10;;;14.90;72.10;;;;;;5036558;28;20072;-73
2021/06/01 20:14:03;;;;;;;8.52;1.80;;;14.90;73.20;;;;;;5032945;28;20044;-74